Terminal Aerodrome Forecast
Issued by NWS Greer, SC

Home | Current Version | Previous Version | Text Only | Print | Product List | Glossary On
Versions: 1 2 3 4 5 6 7 8 9 10 11 12
000
FTUS42 KGSP 311737
TAFGSP
TAF
KGSP 311737Z 3118/0118 08004KT P6SM SCT060
     FM010200 14005KT P6SM FEW070 SCT150
     FM011300 24003KT P6SM FEW080 SCT120=

USA.gov is the U.S. government's official web portal to all federal, state and local government web resources and services.